createdAt,value
2018-01-03T00:00:15.632Z,99286.55
2018-01-03T00:02:43.070Z,99292.45
2018-01-03T00:05:10.538Z,99288.25
2018-01-03T00:07:38.047Z,99297.97
2018-01-03T00:10:05.534Z,99291.19
2018-01-03T00:12:35.303Z,99282.74
2018-01-03T00:15:02.719Z,99278.52
2018-01-03T00:17:30.184Z,99276.80
2018-01-03T00:19:57.640Z,99269.20
2018-01-03T00:22:25.083Z,99269.20
2018-01-03T00:24:53.331Z,99264.15
2018-01-03T00:27:20.772Z,99262.02
2018-01-03T00:29:48.246Z,99257.36
2018-01-03T00:32:16.783Z,99254.37
2018-01-03T00:34:44.266Z,99253.55
2018-01-03T00:37:11.752Z,99251.39
2018-01-03T00:39:39.268Z,99255.27
2018-01-03T00:42:06.718Z,99252.29
2018-01-03T00:44:36.857Z,99240.86
2018-01-03T00:47:04.315Z,99233.65
2018-01-03T00:49:31.747Z,99238.73
2018-01-03T00:51:59.187Z,99239.17
2018-01-03T00:54:27.677Z,99236.64
2018-01-03T00:56:55.135Z,99231.16
2018-01-03T00:59:22.576Z,99240.01
2018-01-03T01:01:50.054Z,99239.57
2018-01-03T01:04:18.396Z,99232.84
2018-01-03T01:06:46.132Z,99227.30
2018-01-03T01:09:13.603Z,99232.75
2018-01-03T01:11:41.090Z,99228.91
2018-01-03T01:14:08.563Z,99225.07
2018-01-03T01:16:36.015Z,99234.42
2018-01-03T01:19:04.091Z,99228.91
2018-01-03T01:21:31.558Z,99228.89
2018-01-03T01:23:58.999Z,99231.41
2018-01-03T01:26:26.453Z,99232.28
2018-01-03T01:28:53.913Z,99233.08
2018-01-03T01:31:21.399Z,99228.02
2018-01-03T01:33:48.869Z,99221.27
2018-01-03T01:36:16.343Z,99221.27
2018-01-03T01:38:43.796Z,99213.63
2018-01-03T01:41:11.253Z,99219.12
2018-01-03T01:43:38.712Z,99209.42
2018-01-03T01:46:06.175Z,99205.11
2018-01-03T01:48:33.616Z,99210.55
2018-01-03T01:51:01.087Z,99199.52
2018-01-03T01:53:28.532Z,99198.64
2018-01-03T01:55:55.979Z,99196.91
2018-01-03T01:58:23.442Z,99193.91
2018-01-03T02:00:50.909Z,99189.34
2018-01-03T02:03:19.300Z,99180.03
2018-01-03T02:05:46.737Z,99174.52
2018-01-03T02:08:14.185Z,99168.17
2018-01-03T02:10:41.662Z,99165.72
2018-01-03T02:13:09.126Z,99160.72
2018-01-03T02:15:36.594Z,99161.95
2018-01-03T02:18:04.050Z,99157.30
2018-01-03T02:20:31.662Z,99149.28
2018-01-03T02:22:59.313Z,99148.48
2018-01-03T02:25:26.774Z,99147.64
2018-01-03T02:27:54.244Z,99140.90
2018-01-03T02:30:21.692Z,99140.07
2018-01-03T02:32:49.156Z,99137.06
2018-01-03T02:35:16.608Z,99127.00
2018-01-03T02:37:44.067Z,99127.80
2018-01-03T02:40:11.603Z,99123.52
2018-01-03T02:42:39.089Z,99116.33
2018-01-03T02:45:06.550Z,99121.32
2018-01-03T02:47:34.007Z,99117.08
2018-01-03T02:50:01.458Z,99114.98
2018-01-03T02:52:28.934Z,99117.91
2018-01-03T02:54:56.447Z,99112.45
2018-01-03T02:57:23.903Z,99103.57
2018-01-03T02:59:51.351Z,99098.06
2018-01-03T03:02:18.805Z,99096.79
2018-01-03T03:04:46.383Z,99088.34
2018-01-03T03:07:13.823Z,99085.39
2018-01-03T03:09:41.275Z,99073.96
2018-01-03T03:12:08.726Z,99075.20
2018-01-03T03:14:36.189Z,99071.82
2018-01-03T03:17:03.714Z,99068.05
2018-01-03T03:19:31.165Z,99060.11
2018-01-03T03:21:58.622Z,99054.73
2018-01-03T03:24:27.874Z,99041.66
2018-01-03T03:26:55.322Z,99034.91
2018-01-03T03:29:22.786Z,99026.84
2018-01-03T03:31:50.242Z,99025.56
2018-01-03T03:34:17.754Z,99029.72
2018-01-03T03:36:45.211Z,99029.77
2018-01-03T03:39:12.663Z,99025.53
2018-01-03T03:41:40.147Z,99021.33
2018-01-03T03:44:07.587Z,99015.45
2018-01-03T03:46:35.061Z,99008.31
2018-01-03T03:49:02.522Z,99009.58
2018-01-03T03:51:30.612Z,99011.64
2018-01-03T03:53:58.058Z,99006.16
2018-01-03T03:56:25.556Z,99004.91
2018-01-03T03:58:53.012Z,98990.14
2018-01-03T04:01:20.458Z,98987.64
2018-01-03T04:03:47.907Z,98986.34
2018-01-03T04:06:15.342Z,98972.80
2018-01-03T04:08:42.778Z,98980.34
2018-01-03T04:11:10.257Z,98975.66
2018-01-03T04:13:37.705Z,98967.66
2018-01-03T04:16:05.177Z,98946.61
2018-01-03T04:18:32.626Z,98947.44
2018-01-03T04:21:00.083Z,98936.48
2018-01-03T04:23:27.536Z,98925.47
2018-01-03T04:25:54.980Z,98922.45
2018-01-03T04:28:22.436Z,98922.34
2018-01-03T04:30:49.906Z,98910.48
2018-01-03T04:33:19.074Z,98906.69
2018-01-03T04:35:46.519Z,98901.64
2018-01-03T04:38:13.964Z,98892.44
2018-01-03T04:40:41.415Z,98890.33
2018-01-03T04:43:08.867Z,98882.70
2018-01-03T04:45:36.306Z,98877.18
2018-01-03T04:48:03.762Z,98865.50
2018-01-03T04:50:31.243Z,98875.66
2018-01-03T04:52:59.550Z,98868.05
2018-01-03T04:55:27.038Z,98866.40
2018-01-03T04:57:54.495Z,98868.88
2018-01-03T05:00:21.936Z,98865.48
2018-01-03T05:02:49.399Z,98873.03
2018-01-03T05:05:16.862Z,98864.64
2018-01-03T05:07:44.310Z,98857.47
2018-01-03T05:10:11.803Z,98852.04
2018-01-03T05:12:39.259Z,98841.11
2018-01-03T05:15:06.692Z,98834.45
2018-01-03T05:17:34.122Z,98836.95
2018-01-03T05:20:01.607Z,98828.55
2018-01-03T05:22:29.077Z,98829.03
2018-01-03T05:24:56.504Z,98821.09
2018-01-03T05:27:23.954Z,98817.73
2018-01-03T05:29:51.419Z,98804.27
2018-01-03T05:32:18.856Z,98801.75
2018-01-03T05:34:46.312Z,98791.64
2018-01-03T05:37:13.787Z,98782.80
2018-01-03T05:39:41.237Z,98772.66
2018-01-03T05:42:08.685Z,98767.64
2018-01-03T05:44:36.895Z,98768.89
2018-01-03T05:47:04.361Z,98760.91
2018-01-03T05:49:31.814Z,98737.29
2018-01-03T05:51:59.247Z,98721.30
2018-01-03T05:54:29.235Z,98696.02
2018-01-03T05:56:56.706Z,98679.19
2018-01-03T05:59:24.235Z,98675.37
2018-01-03T06:01:51.683Z,98663.16
2018-01-03T06:04:19.153Z,98654.31
2018-01-03T06:06:46.722Z,98648.00
2018-01-03T06:09:14.242Z,98645.88
2018-01-03T06:11:41.679Z,98641.22
2018-01-03T06:14:09.131Z,98646.27
2018-01-03T06:16:36.588Z,98641.19
2018-01-03T06:19:04.627Z,98644.16
2018-01-03T06:21:32.091Z,98639.13
2018-01-03T06:23:59.566Z,98650.49
2018-01-03T06:26:27.010Z,98642.48
2018-01-03T06:28:54.563Z,98623.92
2018-01-03T06:31:21.955Z,98593.55
2018-01-03T06:33:49.413Z,98579.65
2018-01-03T06:36:16.871Z,98562.80
2018-01-03T06:38:44.331Z,98559.44
2018-01-03T06:41:13.239Z,98569.13
2018-01-03T06:43:40.711Z,98558.59
2018-01-03T06:46:08.159Z,98561.13
2018-01-03T06:48:35.598Z,98555.20
2018-01-03T06:51:03.052Z,98539.63
2018-01-03T06:53:30.508Z,98525.73
2018-01-03T06:55:57.976Z,98517.28
2018-01-03T06:58:25.422Z,98516.91
2018-01-03T07:00:52.856Z,98502.55
2018-01-03T07:03:20.310Z,98497.92
2018-01-03T07:05:47.758Z,98510.09
2018-01-03T07:08:16.659Z,98510.08
2018-01-03T07:10:44.130Z,98510.94
2018-01-03T07:13:11.710Z,98499.96
2018-01-03T07:15:39.178Z,98490.68
2018-01-03T07:18:06.619Z,98486.83
2018-01-03T07:20:35.242Z,98473.79
2018-01-03T07:23:02.715Z,98456.86
2018-01-03T07:25:30.164Z,98454.75
2018-01-03T07:27:57.672Z,98451.35
2018-01-03T07:30:25.154Z,98433.58
2018-01-03T07:32:52.615Z,98421.67
2018-01-03T07:35:20.128Z,98416.55
2018-01-03T07:37:47.570Z,98407.46
2018-01-03T07:40:16.000Z,98384.67
2018-01-03T07:42:43.502Z,98379.58
2018-01-03T07:45:10.950Z,98364.33
2018-01-03T07:47:38.445Z,98350.84
2018-01-03T07:50:05.952Z,98337.77
2018-01-03T07:52:33.392Z,98324.97
2018-01-03T07:55:00.875Z,98316.81
2018-01-03T07:57:28.373Z,98307.84
2018-01-03T07:59:55.908Z,98276.91
2018-01-03T08:02:23.364Z,98262.92
2018-01-03T08:04:50.846Z,98272.91
2018-01-03T08:07:18.499Z,98261.45
2018-01-03T08:09:45.953Z,98241.91
2018-01-03T08:12:13.427Z,98229.89
2018-01-03T08:14:40.878Z,98212.09
2018-01-03T08:17:08.340Z,98202.05
2018-01-03T08:19:35.787Z,98187.58
2018-01-03T08:22:03.255Z,98178.95
2018-01-03T08:24:30.788Z,98171.00
2018-01-03T08:26:58.241Z,98163.63
2018-01-03T08:29:25.692Z,98160.67
2018-01-03T08:31:53.164Z,98161.34
2018-01-03T08:34:20.640Z,98170.68
2018-01-03T08:36:48.143Z,98175.98
2018-01-03T08:39:17.122Z,98174.88
2018-01-03T08:41:44.596Z,98146.14
2018-01-03T08:44:12.056Z,98139.80
2018-01-03T08:46:39.578Z,98124.53
2018-01-03T08:49:07.028Z,98103.81
2018-01-03T08:51:34.470Z,98066.16
2018-01-03T08:54:01.971Z,98041.99
2018-01-03T08:56:29.449Z,98032.00
2018-01-03T08:58:56.912Z,98033.55
2018-01-03T09:01:24.377Z,98004.80
2018-01-03T09:03:51.841Z,97969.48
2018-01-03T09:06:19.282Z,97962.27
2018-01-03T09:08:46.755Z,97963.16
2018-01-03T09:11:14.206Z,97966.37
2018-01-03T09:13:41.675Z,97973.72
2018-01-03T09:16:09.135Z,97973.87
2018-01-03T09:18:36.643Z,97943.47
2018-01-03T09:21:04.098Z,97886.95
2018-01-03T09:23:31.539Z,97866.05
2018-01-03T09:25:58.981Z,97877.83
2018-01-03T09:28:26.466Z,97873.02
2018-01-03T09:30:53.919Z,97866.78
2018-01-03T09:33:21.375Z,97868.00
2018-01-03T09:35:48.831Z,97867.63
2018-01-03T09:38:16.314Z,97865.35
2018-01-03T09:40:44.173Z,97868.67
2018-01-03T09:43:11.619Z,97849.67
2018-01-03T09:45:39.056Z,97832.80
2018-01-03T09:48:06.514Z,97821.21
2018-01-03T09:50:33.957Z,97820.97
2018-01-03T09:53:01.412Z,97818.66
2018-01-03T09:55:28.891Z,97831.65
2018-01-03T09:57:56.340Z,97844.05
2018-01-03T10:00:23.884Z,97834.28
2018-01-03T10:02:51.351Z,97810.27
2018-01-03T10:05:18.783Z,97778.20
2018-01-03T10:07:46.273Z,97748.34
2018-01-03T10:10:14.230Z,97744.66
2018-01-03T10:12:41.672Z,97731.93
2018-01-03T10:15:09.128Z,97693.54
2018-01-03T10:17:36.596Z,97717.23
2018-01-03T10:20:04.458Z,97714.34
2018-01-03T10:22:33.453Z,97706.74
2018-01-03T10:25:00.927Z,97694.41
2018-01-03T10:27:28.388Z,97705.78
2018-01-03T10:29:55.851Z,97682.41
2018-01-03T10:32:23.372Z,97656.53
2018-01-03T10:34:50.823Z,97649.33
2018-01-03T10:37:18.310Z,97650.59
2018-01-03T10:39:45.777Z,97629.02
2018-01-03T10:42:13.239Z,97616.98
2018-01-03T10:44:41.488Z,97598.56
2018-01-03T10:47:09.095Z,97572.19
2018-01-03T10:49:36.547Z,97547.93
2018-01-03T10:52:04.000Z,97539.45
2018-01-03T10:54:31.456Z,97538.89
2018-01-03T10:56:58.891Z,97529.98
2018-01-03T10:59:26.403Z,97518.63
2018-01-03T11:01:53.846Z,97534.03
2018-01-03T11:04:21.354Z,97507.55
2018-01-03T11:06:48.854Z,97511.32
2018-01-03T11:09:16.599Z,97542.36
2018-01-03T11:11:44.042Z,97506.08
2018-01-03T11:14:11.541Z,97469.09
2018-01-03T11:16:39.164Z,97483.18
2018-01-03T11:19:06.655Z,97457.19
2018-01-03T11:21:34.099Z,97445.95
2018-01-03T11:24:01.566Z,97430.28
2018-01-03T11:26:29.094Z,97431.02
2018-01-03T11:28:56.731Z,97401.83
2018-01-03T11:31:24.204Z,97410.92
2018-01-03T11:33:51.688Z,97403.51
2018-01-03T11:36:19.155Z,97398.17
2018-01-03T11:38:46.663Z,97380.30
2018-01-03T11:41:14.207Z,97368.18
2018-01-03T11:43:41.688Z,97368.45
2018-01-03T11:46:09.170Z,97377.65
2018-01-03T11:48:36.653Z,97394.83
2018-01-03T11:51:04.242Z,97367.16
2018-01-03T11:53:31.769Z,97412.23
2018-01-03T11:55:59.305Z,97425.45
2018-01-03T11:58:26.791Z,97425.48
2018-01-03T12:00:54.263Z,97437.53
2018-01-03T12:03:21.728Z,97446.42
2018-01-03T12:05:49.243Z,97451.72
2018-01-03T12:08:16.795Z,97449.98
2018-01-03T12:10:45.543Z,97484.36
2018-01-03T12:13:13.011Z,97510.08
2018-01-03T12:15:40.499Z,97518.44
2018-01-03T12:18:07.988Z,97542.90
2018-01-03T12:20:35.499Z,97561.84
2018-01-03T12:23:04.676Z,97563.06
2018-01-03T12:25:32.168Z,97574.13
2018-01-03T12:30:32.415Z,97626.62
2018-01-03T12:33:00.451Z,97635.70
2018-01-03T12:35:27.928Z,97638.50
2018-01-03T12:37:55.426Z,97651.34
2018-01-03T12:40:22.904Z,97678.48
2018-01-03T12:42:50.445Z,97668.52
2018-01-03T12:45:18.039Z,97661.52
2018-01-03T12:47:45.514Z,97673.74
2018-01-03T12:50:13.000Z,97690.86
2018-01-03T12:52:40.487Z,97686.95
2018-01-03T12:55:07.951Z,97682.70
2018-01-03T12:57:35.408Z,97659.59
2018-01-03T13:00:02.900Z,97650.34
2018-01-03T13:02:30.382Z,97636.88
2018-01-03T13:04:57.915Z,97628.33
2018-01-03T13:07:25.410Z,97606.98
2018-01-03T13:09:52.912Z,97598.27
2018-01-03T13:12:20.360Z,97596.31
2018-01-03T13:14:47.816Z,97585.00
2018-01-03T13:17:15.268Z,97577.53
2018-01-03T13:19:42.789Z,97574.16
2018-01-03T13:22:10.267Z,97562.03
2018-01-03T13:24:37.737Z,97550.94
2018-01-03T13:27:05.632Z,97531.23
2018-01-03T13:29:33.138Z,97454.74
2018-01-03T13:32:00.620Z,97412.94
2018-01-03T13:34:28.183Z,97442.08
2018-01-03T13:36:55.655Z,97494.70
2018-01-03T13:39:23.150Z,97515.38
2018-01-03T13:41:50.600Z,97539.70
2018-01-03T13:44:20.997Z,97541.91
2018-01-03T13:46:48.441Z,97554.24
2018-01-03T13:49:15.903Z,97574.34
2018-01-03T13:51:43.402Z,97626.34
2018-01-03T13:54:10.863Z,97625.02
2018-01-03T13:56:38.302Z,97618.69
2018-01-03T13:59:05.782Z,97634.22
2018-01-03T14:14:28.562Z,97628.42
2018-01-03T14:16:56.003Z,97643.11
2018-01-03T14:19:23.463Z,97661.30
2018-01-03T14:21:50.941Z,97667.95
2018-01-03T14:24:18.406Z,97681.14
2018-01-03T14:26:45.869Z,97690.71
2018-01-03T14:29:13.331Z,97711.11
2018-01-03T14:31:40.853Z,97737.72
2018-01-03T14:34:08.293Z,97727.35
2018-01-03T14:36:35.760Z,97728.32
2018-01-03T14:39:03.247Z,97734.96
2018-01-03T14:41:30.719Z,97764.06
2018-01-03T14:43:58.207Z,97768.75
2018-01-03T14:46:25.653Z,97735.45
2018-01-03T14:48:53.182Z,97740.83
2018-01-03T14:51:20.639Z,97753.05
2018-01-03T14:53:48.080Z,97749.33
2018-01-03T14:56:17.247Z,97700.00
2018-01-03T14:58:44.701Z,97742.66
2018-01-03T15:01:12.159Z,97741.80
2018-01-03T15:03:39.615Z,97718.22
2018-01-03T15:06:07.048Z,97748.25
2018-01-03T15:08:34.934Z,97819.72
2018-01-03T15:11:02.476Z,97727.77
2018-01-03T15:13:29.910Z,97755.28
2018-01-03T15:15:57.358Z,97774.78
2018-01-03T15:18:25.042Z,97790.13
2018-01-03T15:20:52.514Z,97798.05
2018-01-03T15:23:20.001Z,97804.50
2018-01-03T15:25:47.447Z,97839.18
2018-01-03T15:28:16.702Z,97880.42
2018-01-03T15:30:44.203Z,97887.66
2018-01-03T15:33:11.683Z,97891.11
2018-01-03T15:35:39.196Z,97886.95
2018-01-03T15:38:06.660Z,97887.58
2018-01-03T15:40:34.675Z,97904.24
2018-01-03T15:43:02.136Z,97928.96
2018-01-03T15:45:29.604Z,97925.30
2018-01-03T15:47:57.107Z,97932.31
2018-01-03T15:50:24.616Z,97914.34
2018-01-03T15:52:52.075Z,97905.47
2018-01-03T15:55:20.279Z,97911.17
2018-01-03T15:57:47.770Z,97935.03
2018-01-03T16:00:15.260Z,97946.27
2018-01-03T16:02:42.699Z,97891.49
2018-01-03T16:05:10.231Z,97920.77
2018-01-03T16:07:37.716Z,97852.59
2018-01-03T16:10:05.184Z,97850.55
2018-01-03T16:12:32.640Z,97851.83
2018-01-03T16:15:00.165Z,97876.44
2018-01-03T16:17:27.654Z,97849.44
2018-01-03T16:19:56.697Z,97842.83
2018-01-03T16:22:24.207Z,97852.53
2018-01-03T16:24:51.704Z,97866.70
2018-01-03T16:27:19.200Z,97916.61
2018-01-03T16:29:46.675Z,97901.25
2018-01-03T16:32:14.159Z,97912.78
2018-01-03T16:34:41.620Z,97922.65
2018-01-03T16:37:09.074Z,97907.70
2018-01-03T16:39:37.072Z,97916.19
2018-01-03T16:42:04.562Z,97908.52
2018-01-03T16:44:32.091Z,97944.62
2018-01-03T16:46:59.644Z,97985.89
2018-01-03T16:49:27.118Z,97980.50
2018-01-03T16:52:00.033Z,98026.71
2018-01-03T16:54:27.803Z,97981.13
2018-01-03T16:56:55.414Z,97994.77
2018-01-03T16:59:22.927Z,98023.98
2018-01-03T17:01:51.054Z,98013.78
2018-01-03T17:04:18.619Z,98019.45
2018-01-03T17:06:47.157Z,98018.90
2018-01-03T17:09:14.726Z,98000.44
2018-01-03T17:11:42.266Z,97986.97
2018-01-03T17:14:09.730Z,98002.16
2018-01-03T17:16:37.186Z,98034.98
2018-01-03T17:19:04.662Z,98035.23
2018-01-03T17:21:32.111Z,98061.66
2018-01-03T17:23:59.583Z,98023.04
2018-01-03T17:26:27.060Z,98025.64
2018-01-03T17:28:54.514Z,98091.52
2018-01-03T17:31:21.980Z,98038.99
2018-01-03T17:33:49.461Z,98050.08
2018-01-03T17:36:16.928Z,98023.72
2018-01-03T17:38:44.391Z,98044.67
2018-01-03T17:41:11.830Z,98043.12
2018-01-03T17:43:39.295Z,98014.27
2018-01-03T17:46:06.755Z,98046.00
2018-01-03T17:48:34.298Z,98030.05
2018-01-03T17:51:01.779Z,98027.92
2018-01-03T17:53:29.266Z,98031.15
2018-01-03T17:55:56.846Z,98012.14
2018-01-03T17:58:24.373Z,98025.81
2018-01-03T18:00:51.845Z,98028.02
2018-01-03T18:03:19.304Z,98029.69
2018-01-03T18:05:46.778Z,98032.03
2018-01-03T18:08:14.256Z,98026.34
2018-01-03T18:10:41.754Z,98027.26
2018-01-03T18:13:09.211Z,98004.34
2018-01-03T18:15:36.720Z,98022.66
2018-01-03T18:18:05.170Z,98016.32
2018-01-03T18:20:32.767Z,98041.97
2018-01-03T18:23:00.223Z,98037.81
2018-01-03T18:25:27.785Z,98094.73
2018-01-03T18:27:55.322Z,98046.52
2018-01-03T18:30:22.824Z,98048.28
2018-01-03T18:32:50.286Z,98047.92
2018-01-03T18:35:17.722Z,98098.84
2018-01-03T18:37:45.580Z,98054.05
2018-01-03T18:40:13.023Z,98044.70
2018-01-03T18:42:40.484Z,98043.81
2018-01-03T18:45:07.972Z,98053.83
2018-01-03T18:47:35.428Z,98042.78
2018-01-03T18:50:02.957Z,98051.55
2018-01-03T18:52:30.424Z,98048.29
2018-01-03T18:54:57.894Z,98063.50
2018-01-03T18:57:25.451Z,98061.54
2018-01-03T18:59:52.959Z,98053.97
2018-01-03T19:02:20.459Z,98087.95
2018-01-03T19:04:47.952Z,98060.00
2018-01-03T19:07:15.462Z,98059.13
2018-01-03T19:09:42.915Z,98081.59
2018-01-03T19:12:10.435Z,98070.33
2018-01-03T19:17:11.712Z,98077.31
2018-01-03T19:19:39.223Z,98085.77
2018-01-03T19:22:06.675Z,98074.83
2018-01-03T19:24:34.154Z,98058.44
2018-01-03T19:27:01.638Z,98069.55
2018-01-03T19:29:29.166Z,98085.10
2018-01-03T19:31:56.664Z,98061.59
2018-01-03T19:34:24.269Z,98090.87
2018-01-03T19:36:51.755Z,98061.78
2018-01-03T19:39:19.229Z,98052.55
2018-01-03T19:41:46.747Z,98057.22
2018-01-03T19:44:14.350Z,98058.69
2018-01-03T19:46:41.813Z,98062.60
2018-01-03T19:49:09.710Z,98062.20
2018-01-03T19:51:37.310Z,98052.47
2018-01-03T19:54:04.866Z,98058.13
2018-01-03T19:56:33.274Z,98063.98
2018-01-03T19:59:00.919Z,98067.54
2018-01-03T20:01:28.512Z,98073.69
2018-01-03T20:03:56.009Z,98065.84
2018-01-03T20:06:24.160Z,98089.50
2018-01-03T20:08:51.834Z,98070.64
2018-01-03T20:11:19.344Z,98074.53
2018-01-03T20:13:47.068Z,98078.05
2018-01-03T20:16:14.737Z,98088.73
2018-01-03T20:18:42.264Z,98103.36
2018-01-03T20:21:09.966Z,98074.38
2018-01-03T20:23:37.993Z,98087.01
2018-01-03T20:26:05.730Z,98075.64
2018-01-03T20:28:33.340Z,98136.20
2018-01-03T20:31:00.903Z,98072.87
2018-01-03T20:33:28.382Z,98092.09
2018-01-03T20:35:56.011Z,98089.41
2018-01-03T20:38:23.776Z,98075.96
2018-01-03T20:40:51.574Z,98082.62
2018-01-03T20:43:19.361Z,98067.75
2018-01-03T20:45:47.946Z,98098.16
2018-01-03T20:48:15.752Z,98095.43
2018-01-03T20:50:43.608Z,98094.47
2018-01-03T20:53:11.249Z,98102.83
2018-01-03T20:55:39.004Z,98092.91
2018-01-03T20:58:06.553Z,98124.66
2018-01-03T21:00:34.150Z,98097.12
2018-01-03T21:03:01.783Z,98099.17
2018-01-03T21:05:29.500Z,98156.37
2018-01-03T21:07:57.256Z,98115.48
2018-01-03T21:10:24.985Z,98090.11
2018-01-03T21:12:52.675Z,98104.63
2018-01-03T21:15:20.235Z,98108.67
2018-01-03T21:17:47.755Z,98104.45
2018-01-03T21:20:21.163Z,98107.34
2018-01-03T21:22:49.608Z,98091.67
2018-01-03T21:25:17.147Z,98097.50
2018-01-03T21:27:44.928Z,98090.69
2018-01-03T21:30:12.527Z,98101.58
2018-01-03T21:32:40.072Z,98113.80
2018-01-03T21:35:07.587Z,98100.91
2018-01-03T21:37:35.129Z,98132.25
2018-01-03T21:40:02.602Z,98119.94
2018-01-03T21:42:30.079Z,98148.13
2018-01-03T21:44:57.581Z,98124.09
2018-01-03T21:47:25.124Z,98109.13
2018-01-03T21:49:53.145Z,98127.67
2018-01-03T21:52:20.702Z,98191.73
2018-01-03T21:54:48.202Z,98120.96
2018-01-03T21:57:17.036Z,98130.52
2018-01-03T21:59:44.529Z,98141.75
2018-01-03T22:02:12.050Z,98112.02
2018-01-03T22:04:39.545Z,98117.08
2018-01-03T22:07:07.203Z,98130.98
2018-01-03T22:09:34.664Z,98155.31
2018-01-03T22:12:02.134Z,98146.30
2018-01-03T22:14:29.659Z,98166.08
2018-01-03T22:16:57.163Z,98143.82
2018-01-03T22:19:24.637Z,98120.38
2018-01-03T22:21:52.148Z,98150.34
2018-01-03T22:24:19.659Z,98174.28
2018-01-03T22:26:47.164Z,98170.08
2018-01-03T22:29:14.717Z,98148.95
2018-01-03T22:31:42.258Z,98125.95
2018-01-03T22:34:09.757Z,98126.33
2018-01-03T22:36:37.235Z,98143.50
2018-01-03T22:39:04.781Z,98160.14
2018-01-03T22:41:32.244Z,98126.14
2018-01-03T22:43:59.724Z,98166.67
2018-01-03T22:46:27.204Z,98121.64
2018-01-03T22:48:54.668Z,98142.96
2018-01-03T22:51:22.163Z,98145.11
2018-01-03T22:53:49.687Z,98126.06
2018-01-03T22:56:17.207Z,98129.92
2018-01-03T22:58:44.675Z,98108.34
2018-01-03T23:01:12.155Z,98118.79
2018-01-03T23:03:39.695Z,98131.51
2018-01-03T23:06:07.205Z,98104.21
2018-01-03T23:08:34.867Z,98104.89
2018-01-03T23:11:02.349Z,98108.00
2018-01-03T23:13:29.851Z,98100.23
2018-01-03T23:15:57.345Z,98102.64
2018-01-03T23:18:24.930Z,98090.98
2018-01-03T23:20:52.397Z,98081.09
2018-01-03T23:23:19.898Z,98087.36
2018-01-03T23:25:47.383Z,98086.45
2018-01-03T23:28:14.865Z,98088.56
2018-01-03T23:30:42.329Z,98113.55
2018-01-03T23:33:09.876Z,98088.46
2018-01-03T23:35:37.364Z,98097.48
2018-01-03T23:38:04.840Z,98064.66
2018-01-03T23:40:32.315Z,98071.31
2018-01-03T23:42:59.797Z,98100.37
2018-01-03T23:45:27.304Z,98117.98
2018-01-03T23:47:54.804Z,98139.39
2018-01-03T23:50:22.275Z,98117.31
2018-01-03T23:52:49.755Z,98195.82
2018-01-03T23:55:17.258Z,98126.06
2018-01-03T23:57:44.772Z,98123.67
